Terminal Aerodrome Forecast
Issued by NWS Newport/Morehead City, NC

Home | Current Version | Previous Version | Text Only | Print | Product List | Glossary On
Versions: 1 2 3 4 5 6 7 8 9 10 11 12 13 14 15 16 17 18 19 20 21
000
FTUS42 KMHX 052035 CCA
TAFEWN
TAF COR
KEWN 052035Z 0521/0618 03009KT P6SM SHRA OVC025
      TEMPO 0521/0522 5SM RA BKN009
     FM060100 VRB04KT 6SM BR BKN015
     FM060500 34005KT 6SM BR OVC007
     FM061600 29007KT P6SM OVC020=

USA.gov is the U.S. government's official web portal to all federal, state and local government web resources and services.